Time;durP1;ratioP1;P1;durP2;ratioP2;P2;SDS_P1;SDS_P2;PMS_P1;PMS_P2;Temp;Humidity;BMP_temperature;BMP_pressure;BME280_temperature;BME280_humidity;BME280_pressure;Samples;Min_cycle;Max_cycle;Signal;HPM_P1;HPM_P2
2022/07/04 00:00:19;;;;;;;;;;;27.70;99.90;;;;;;5097994;28;19912;-72
2022/07/04 00:02:45;;;;;;;;;;;27.70;99.90;;;;;;5103961;28;20408;-73
2022/07/04 00:05:11;;;;;;;;;;;27.70;99.90;;;;;;5101958;28;19912;-70
2022/07/04 00:07:37;;;;;;;;;;;27.70;99.90;;;;;;5105178;28;20055;-70
2022/07/04 00:10:04;;;;;;;;;;;27.70;99.90;;;;;;5098796;28;20577;-72
2022/07/04 00:12:29;;;;;;;;;;;27.70;99.90;;;;;;5100157;28;19908;-70
2022/07/04 00:14:55;;;;;;;;;;;27.80;99.90;;;;;;5112584;28;20333;-71
2022/07/04 00:17:21;;;;;;;;;;;27.90;99.90;;;;;;5109451;28;19923;-72
2022/07/04 00:19:46;;;;;;;;;;;27.80;99.90;;;;;;5101823;28;19915;-69
2022/07/04 00:22:12;;;;;;;;;;;27.80;99.90;;;;;;5101576;28;20526;-70
2022/07/04 00:24:38;;;;;;;;;;;27.70;99.90;;;;;;5101922;28;19912;-69
2022/07/04 00:27:04;;;;;;;;;;;27.80;99.90;;;;;;5097668;28;19995;-72
2022/07/04 00:29:29;;;;;;;;;;;27.70;99.90;;;;;;5099091;28;19916;-71
2022/07/04 00:31:55;;;;;;;;;;;27.70;99.90;;;;;;5102485;28;19927;-71
2022/07/04 00:34:20;;;;;;;;;;;27.70;99.90;;;;;;5097682;28;19916;-69
2022/07/04 00:36:46;;;;;;;;;;;27.60;99.90;;;;;;5098484;28;20245;-70
2022/07/04 00:39:12;;;;;;;;;;;27.50;99.90;;;;;;5094829;28;20007;-69
2022/07/04 00:41:37;;;;;;;;;;;27.40;99.90;;;;;;5097138;28;19915;-70
2022/07/04 00:44:04;;;;;;;;;;;27.30;99.90;;;;;;5101416;28;19915;-70
2022/07/04 00:46:30;;;;;;;;;;;27.20;99.90;;;;;;5099983;28;19908;-71
2022/07/04 00:48:56;;;;;;;;;;;27.10;99.90;;;;;;5099590;28;19914;-71
2022/07/04 00:51:22;;;;;;;;;;;27.00;99.90;;;;;;5098382;28;20317;-71
2022/07/04 00:53:48;;;;;;;;;;;27.00;99.90;;;;;;5100645;28;19940;-71
2022/07/04 00:56:14;;;;;;;;;;;26.90;99.90;;;;;;5097052;28;19950;-71
2022/07/04 00:58:39;;;;;;;;;;;26.80;99.90;;;;;;5097180;28;19947;-71
2022/07/04 01:01:05;;;;;;;;;;;26.80;99.90;;;;;;5100014;28;20357;-70
2022/07/04 01:03:30;;;;;;;;;;;26.70;99.90;;;;;;5097154;28;20090;-70
2022/07/04 01:05:58;;;;;;;;;;;26.80;99.90;;;;;;5096393;28;19914;-70
2022/07/04 01:08:24;;;;;;;;;;;26.80;99.90;;;;;;5098636;28;19914;-70
2022/07/04 01:10:49;;;;;;;;;;;26.70;99.90;;;;;;5103149;28;19908;-70
2022/07/04 01:13:19;;;;;;;;;;;26.70;99.90;;;;;;5102732;28;19903;-72
2022/07/04 01:15:44;;;;;;;;;;;26.80;99.90;;;;;;5099376;28;19918;-71
2022/07/04 01:18:10;;;;;;;;;;;26.70;99.90;;;;;;5099331;28;19916;-70
2022/07/04 01:20:36;;;;;;;;;;;26.80;99.90;;;;;;5098674;28;19912;-70
2022/07/04 01:23:02;;;;;;;;;;;26.90;99.90;;;;;;5100018;28;20361;-71
2022/07/04 01:25:28;;;;;;;;;;;27.00;99.90;;;;;;5094115;28;19922;-70
2022/07/04 01:27:53;;;;;;;;;;;26.90;99.90;;;;;;5095614;28;19907;-69
2022/07/04 01:30:19;;;;;;;;;;;26.90;99.90;;;;;;5094302;28;19967;-72
2022/07/04 01:32:44;;;;;;;;;;;26.90;99.90;;;;;;5095711;28;19911;-69
2022/07/04 01:35:10;;;;;;;;;;;26.90;99.90;;;;;;5094862;28;19916;-70
2022/07/04 01:37:36;;;;;;;;;;;26.70;99.90;;;;;;5095303;28;20358;-69
2022/07/04 01:40:02;;;;;;;;;;;26.60;99.90;;;;;;5099051;28;20460;-69
2022/07/04 01:42:28;;;;;;;;;;;26.70;99.90;;;;;;5101635;28;20010;-70
2022/07/04 01:44:53;;;;;;;;;;;26.80;99.90;;;;;;5095391;28;19937;-71
2022/07/04 01:47:19;;;;;;;;;;;26.80;99.90;;;;;;5093330;28;19952;-71
2022/07/04 01:49:44;;;;;;;;;;;26.90;99.90;;;;;;5095205;28;20285;-71
2022/07/04 01:52:10;;;;;;;;;;;26.80;99.90;;;;;;5097288;28;19908;-72
2022/07/04 01:54:36;;;;;;;;;;;26.80;99.90;;;;;;5097452;28;19916;-71
2022/07/04 01:57:01;;;;;;;;;;;26.80;99.90;;;;;;5109072;28;19907;-70
2022/07/04 02:02:11;;;;;;;;;;;26.60;99.90;;;;;;5101357;28;20252;-69
2022/07/04 02:04:37;;;;;;;;;;;26.50;99.90;;;;;;5112208;28;19998;-71
2022/07/04 02:07:02;;;;;;;;;;;26.50;99.90;;;;;;5114617;28;19923;-68
2022/07/04 02:09:30;;;;;;;;;;;26.40;99.90;;;;;;5099920;28;20289;-68
2022/07/04 02:14:41;;;;;;;;;;;26.50;99.90;;;;;;5097280;28;19937;-68
2022/07/04 02:17:07;;;;;;;;;;;26.30;99.90;;;;;;5097884;28;20384;-65
2022/07/04 02:19:32;;;;;;;;;;;26.10;99.90;;;;;;5098144;28;20014;-67
2022/07/04 02:21:58;;;;;;;;;;;26.00;99.90;;;;;;5095494;28;19908;-67
2022/07/04 02:24:23;;;;;;;;;;;25.90;99.90;;;;;;5093150;28;19958;-68
2022/07/04 02:26:49;;;;;;;;;;;25.80;99.90;;;;;;5096569;28;20377;-68
2022/07/04 02:29:15;;;;;;;;;;;26.00;99.90;;;;;;5097712;28;19947;-68
2022/07/04 02:31:41;;;;;;;;;;;26.00;99.90;;;;;;5100795;28;19991;-67
2022/07/04 02:34:06;;;;;;;;;;;26.00;99.90;;;;;;5097438;28;19916;-67
2022/07/04 02:36:32;;;;;;;;;;;26.00;99.90;;;;;;5094941;28;19919;-68
2022/07/04 02:38:58;;;;;;;;;;;26.00;99.90;;;;;;5097259;28;19935;-69
2022/07/04 02:41:23;;;;;;;;;;;25.90;99.90;;;;;;5097167;28;20093;-69
2022/07/04 02:43:49;;;;;;;;;;;26.00;99.90;;;;;;5098479;28;19907;-68
2022/07/04 02:46:15;;;;;;;;;;;26.10;99.90;;;;;;5096908;28;19915;-69
2022/07/04 02:48:41;;;;;;;;;;;26.00;99.90;;;;;;5107454;28;19910;-68
2022/07/04 02:51:06;;;;;;;;;;;25.90;99.90;;;;;;5102401;28;19908;-69
2022/07/04 02:53:32;;;;;;;;;;;25.90;99.90;;;;;;5101065;28;20363;-68
2022/07/04 02:55:58;;;;;;;;;;;25.80;99.90;;;;;;5114910;28;19911;-69
2022/07/04 02:58:23;;;;;;;;;;;25.90;99.90;;;;;;5115144;28;20285;-69
2022/07/04 03:00:49;;;;;;;;;;;26.00;99.90;;;;;;5113659;28;19933;-69
2022/07/04 03:03:14;;;;;;;;;;;26.00;99.90;;;;;;5113904;28;19911;-68
2022/07/04 03:05:40;;;;;;;;;;;25.90;99.90;;;;;;5108719;28;20251;-69
2022/07/04 03:08:05;;;;;;;;;;;25.90;99.90;;;;;;5108695;28;19912;-68
2022/07/04 03:10:31;;;;;;;;;;;25.90;99.90;;;;;;5113935;28;20423;-67
2022/07/04 03:12:56;;;;;;;;;;;26.10;99.90;;;;;;5113861;28;19904;-69
2022/07/04 03:15:22;;;;;;;;;;;26.20;99.90;;;;;;5115256;28;20365;-68
2022/07/04 03:17:48;;;;;;;;;;;26.10;99.90;;;;;;5108775;28;20023;-70
2022/07/04 03:20:13;;;;;;;;;;;26.00;99.90;;;;;;5111733;28;20371;-66
2022/07/04 03:22:39;;;;;;;;;;;25.80;99.90;;;;;;5097887;28;19962;-68
2022/07/04 03:25:05;;;;;;;;;;;25.80;99.90;;;;;;5100739;28;19915;-68
2022/07/04 03:27:30;;;;;;;;;;;25.70;99.90;;;;;;5103197;28;19918;-67
2022/07/04 03:29:56;;;;;;;;;;;25.60;99.90;;;;;;5100202;28;19992;-69
2022/07/04 03:32:21;;;;;;;;;;;25.70;99.90;;;;;;5097148;28;19916;-67
2022/07/04 03:34:47;;;;;;;;;;;25.80;99.90;;;;;;5098955;28;19935;-69
2022/07/04 03:37:13;;;;;;;;;;;25.90;99.90;;;;;;5094577;28;19918;-69
2022/07/04 03:39:38;;;;;;;;;;;25.90;99.90;;;;;;5097263;28;19916;-67
2022/07/04 03:42:04;;;;;;;;;;;26.00;99.90;;;;;;5099365;28;19959;-67
2022/07/04 03:44:29;;;;;;;;;;;26.20;99.90;;;;;;5106715;28;20288;-69
2022/07/04 03:46:55;;;;;;;;;;;26.20;99.90;;;;;;5111139;28;19954;-69
2022/07/04 03:49:21;;;;;;;;;;;26.50;99.90;;;;;;5103209;28;20015;-70
2022/07/04 03:51:46;;;;;;;;;;;26.60;99.90;;;;;;5103066;28;19915;-67
2022/07/04 03:54:12;;;;;;;;;;;26.80;99.90;;;;;;5098775;28;20410;-67
2022/07/04 03:56:38;;;;;;;;;;;26.90;99.90;;;;;;5098810;28;20398;-67
2022/07/04 03:59:03;;;;;;;;;;;27.10;99.90;;;;;;5099832;28;19915;-69
2022/07/04 04:01:30;;;;;;;;;;;27.30;99.90;;;;;;5102666;28;19908;-66
2022/07/04 04:06:40;;;;;;;;;;;27.40;99.90;;;;;;5100185;28;20018;-69
2022/07/04 04:09:05;;;;;;;;;;;27.50;99.90;;;;;;5098557;28;19998;-69
2022/07/04 04:11:31;;;;;;;;;;;27.60;99.90;;;;;;5100410;27;19916;-68
2022/07/04 04:13:57;;;;;;;;;;;27.70;99.90;;;;;;5101594;28;19908;-67
2022/07/04 04:16:22;;;;;;;;;;;27.70;99.90;;;;;;5098525;28;20010;-67
2022/07/04 04:18:48;;;;;;;;;;;27.80;99.90;;;;;;5101537;28;19955;-67
2022/07/04 04:21:13;;;;;;;;;;;27.80;99.90;;;;;;5101037;28;19908;-69
2022/07/04 04:23:39;;;;;;;;;;;27.80;99.90;;;;;;5103012;28;19922;-67
2022/07/04 04:26:05;;;;;;;;;;;27.80;99.90;;;;;;5100538;28;19915;-68
2022/07/04 04:28:30;;;;;;;;;;;27.80;99.90;;;;;;5097927;28;19995;-67
2022/07/04 04:30:56;;;;;;;;;;;27.90;99.90;;;;;;5103108;28;19939;-66
2022/07/04 04:33:21;;;;;;;;;;;27.90;99.90;;;;;;5097200;28;20310;-67
2022/07/04 04:35:47;;;;;;;;;;;27.90;99.90;;;;;;5099385;28;20372;-69
2022/07/04 04:38:13;;;;;;;;;;;27.80;99.90;;;;;;5099676;28;19914;-68
2022/07/04 04:40:38;;;;;;;;;;;27.80;99.90;;;;;;5098856;28;19911;-68
2022/07/04 04:43:04;;;;;;;;;;;27.90;99.90;;;;;;5102800;28;19986;-70
2022/07/04 04:45:29;;;;;;;;;;;27.90;99.90;;;;;;5101284;28;19908;-69
2022/07/04 04:47:55;;;;;;;;;;;27.80;99.90;;;;;;5102347;28;19911;-67
2022/07/04 04:50:20;;;;;;;;;;;28.00;99.90;;;;;;5107793;28;19954;-69
2022/07/04 04:52:46;;;;;;;;;;;28.00;99.90;;;;;;5110571;28;19904;-69
2022/07/04 04:55:12;;;;;;;;;;;28.10;99.90;;;;;;5102183;28;20280;-68
2022/07/04 04:57:37;;;;;;;;;;;28.20;99.90;;;;;;5114855;28;19903;-66
2022/07/04 05:00:04;;;;;;;;;;;28.30;99.90;;;;;;5115539;28;19939;-71
2022/07/04 05:02:30;;;;;;;;;;;28.40;99.90;;;;;;5118121;28;19904;-69
2022/07/04 05:04:55;;;;;;;;;;;28.60;99.90;;;;;;5110375;28;19961;-68
2022/07/04 05:07:21;;;;;;;;;;;28.70;99.90;;;;;;5103702;28;19937;-68
2022/07/04 05:09:46;;;;;;;;;;;28.80;99.90;;;;;;5103091;28;20262;-65
2022/07/04 05:12:12;;;;;;;;;;;28.80;99.90;;;;;;5098473;28;19967;-66
2022/07/04 05:14:38;;;;;;;;;;;28.70;99.90;;;;;;5092588;28;19911;-69
2022/07/04 05:17:04;;;;;;;;;;;28.70;99.90;;;;;;5102723;28;19908;-69
2022/07/04 05:19:29;;;;;;;;;;;28.70;99.90;;;;;;5100227;28;19916;-67
2022/07/04 05:21:55;;;;;;;;;;;28.70;99.90;;;;;;5098023;28;19930;-67
2022/07/04 05:24:21;;;;;;;;;;;28.90;99.90;;;;;;5100803;28;19923;-68
2022/07/04 05:26:46;;;;;;;;;;;28.90;99.90;;;;;;5096343;28;20370;-69
2022/07/04 05:29:12;;;;;;;;;;;29.00;99.90;;;;;;5092892;28;20006;-69
2022/07/04 05:31:38;;;;;;;;;;;29.00;99.90;;;;;;5098708;28;19914;-69
2022/07/04 05:34:03;;;;;;;;;;;29.00;99.90;;;;;;5098621;28;20113;-67
2022/07/04 05:36:29;;;;;;;;;;;29.00;99.90;;;;;;5096014;28;20008;-70
2022/07/04 05:38:54;;;;;;;;;;;29.30;99.90;;;;;;5096099;28;19907;-69
2022/07/04 05:41:20;;;;;;;;;;;29.50;99.90;;;;;;5098441;28;19915;-68
2022/07/04 05:43:46;;;;;;;;;;;29.60;99.90;;;;;;5102265;28;19951;-69
2022/07/04 05:46:11;;;;;;;;;;;29.30;99.90;;;;;;5091509;28;19907;-68
2022/07/04 05:48:37;;;;;;;;;;;29.20;99.90;;;;;;5097771;28;19965;-69
2022/07/04 05:51:03;;;;;;;;;;;29.30;99.90;;;;;;5098233;28;20013;-66
2022/07/04 05:53:29;;;;;;;;;;;29.30;99.90;;;;;;5100463;28;19948;-67
2022/07/04 05:55:54;;;;;;;;;;;29.50;99.90;;;;;;5096752;28;20558;-69
2022/07/04 05:58:20;;;;;;;;;;;29.60;99.90;;;;;;5098022;28;19950;-69
2022/07/04 06:00:45;;;;;;;;;;;29.50;99.90;;;;;;5095258;28;19908;-69
2022/07/04 06:03:11;;;;;;;;;;;29.50;99.90;;;;;;5094382;28;19912;-67
2022/07/04 06:05:37;;;;;;;;;;;29.50;99.90;;;;;;5094890;28;19958;-69
2022/07/04 06:08:02;;;;;;;;;;;29.60;99.90;;;;;;5095705;28;19914;-68
2022/07/04 06:10:28;;;;;;;;;;;29.60;99.90;;;;;;5095003;28;19916;-69
2022/07/04 06:12:54;;;;;;;;;;;29.50;99.90;;;;;;5095821;28;19908;-69
2022/07/04 06:15:19;;;;;;;;;;;29.40;99.90;;;;;;5094824;28;19911;-69
2022/07/04 06:17:45;;;;;;;;;;;29.50;99.90;;;;;;5095738;28;20327;-69
2022/07/04 06:20:11;;;;;;;;;;;29.50;99.90;;;;;;5103045;28;19961;-69
2022/07/04 06:22:44;;;;;;;;;;;29.50;99.90;;;;;;5099200;28;19912;-67
2022/07/04 06:25:10;;;;;;;;;;;29.60;99.90;;;;;;5093728;28;19911;-66
2022/07/04 06:27:35;;;;;;;;;;;29.70;99.90;;;;;;5093181;28;19908;-69
2022/07/04 06:30:01;;;;;;;;;;;29.80;99.90;;;;;;5094779;28;19918;-69
2022/07/04 06:32:27;;;;;;;;;;;29.90;99.90;;;;;;5097891;28;19916;-68
2022/07/04 06:37:36;;;;;;;;;;;29.80;99.90;;;;;;5095965;28;20364;-69
2022/07/04 06:40:02;;;;;;;;;;;30.00;99.90;;;;;;5103032;27;19916;-69
2022/07/04 06:42:28;;;;;;;;;;;30.10;99.90;;;;;;5095857;28;19914;-70
2022/07/04 06:44:53;;;;;;;;;;;30.10;99.90;;;;;;5096286;27;19946;-68
2022/07/04 06:47:19;;;;;;;;;;;30.20;99.90;;;;;;5095508;28;20327;-70
2022/07/04 06:49:54;;;;;;;;;;;30.40;99.90;;;;;;5097198;28;20023;-69
2022/07/04 06:52:26;;;;;;;;;;;30.40;99.90;;;;;;5100257;28;20369;-68
2022/07/04 06:55:01;;;;;;;;;;;30.50;99.90;;;;;;5102605;28;20010;-67
2022/07/04 06:57:28;;;;;;;;;;;30.50;99.90;;;;;;5099095;28;19961;-68
2022/07/04 06:59:53;;;;;;;;;;;30.50;99.90;;;;;;5097430;28;19947;-66
2022/07/04 07:02:19;;;;;;;;;;;30.70;99.90;;;;;;5099641;28;19908;-67
2022/07/04 07:04:45;;;;;;;;;;;30.70;99.90;;;;;;5103473;28;19955;-68
2022/07/04 07:07:10;;;;;;;;;;;30.80;99.90;;;;;;5091961;28;19915;-67
2022/07/04 07:09:36;;;;;;;;;;;30.80;99.90;;;;;;5094147;28;19911;-67
2022/07/04 07:12:11;;;;;;;;;;;30.90;99.90;;;;;;5097058;28;19915;-68
2022/07/04 07:14:40;;;;;;;;;;;31.00;99.90;;;;;;5098328;28;19912;-68
2022/07/04 07:17:05;;;;;;;;;;;31.00;99.90;;;;;;5101274;28;19914;-68
2022/07/04 07:19:31;;;;;;;;;;;31.00;99.90;;;;;;5103117;28;19953;-68
2022/07/04 07:21:56;;;;;;;;;;;31.10;99.90;;;;;;5105710;28;20397;-68
2022/07/04 07:24:23;;;;;;;;;;;31.20;99.90;;;;;;5106518;28;19946;-68
2022/07/04 07:26:48;;;;;;;;;;;31.40;99.90;;;;;;5106391;28;20230;-69
2022/07/04 07:29:14;;;;;;;;;;;31.40;99.90;;;;;;5102842;28;19983;-68
2022/07/04 07:31:40;;;;;;;;;;;31.40;99.90;;;;;;5110550;28;20330;-69
2022/07/04 07:34:05;;;;;;;;;;;31.50;99.90;;;;;;5101073;28;19924;-68
2022/07/04 07:36:31;;;;;;;;;;;31.70;99.90;;;;;;5105544;28;19998;-70
2022/07/04 07:38:56;;;;;;;;;;;31.60;99.90;;;;;;5105827;28;19912;-69
2022/07/04 07:41:22;;;;;;;;;;;31.60;99.90;;;;;;5113443;28;19908;-67
2022/07/04 07:43:47;;;;;;;;;;;31.80;99.90;;;;;;5112400;28;19916;-67
2022/07/04 07:46:13;;;;;;;;;;;31.80;99.90;;;;;;5109968;28;19911;-66
2022/07/04 07:48:39;;;;;;;;;;;31.80;99.90;;;;;;5111231;27;20322;-65
2022/07/04 07:51:04;;;;;;;;;;;31.90;99.90;;;;;;5113189;28;20551;-66
2022/07/04 07:53:30;;;;;;;;;;;32.00;99.90;;;;;;5113505;28;19968;-67
2022/07/04 07:55:55;;;;;;;;;;;31.90;99.90;;;;;;5110373;28;19934;-66
2022/07/04 07:58:21;;;;;;;;;;;32.00;99.90;;;;;;5111738;28;19911;-66
2022/07/04 08:00:47;;;;;;;;;;;32.20;99.90;;;;;;5106395;28;19908;-63
2022/07/04 08:05:56;;;;;;;;;;;32.30;99.80;;;;;;5113071;28;19943;-65
2022/07/04 08:08:23;;;;;;;;;;;32.50;99.20;;;;;;5101123;28;19951;-67
2022/07/04 08:10:49;;;;;;;;;;;32.60;98.70;;;;;;5107399;28;19907;-66
2022/07/04 08:13:15;;;;;;;;;;;32.80;98.50;;;;;;5108991;28;19935;-67
2022/07/04 08:15:40;;;;;;;;;;;32.70;98.60;;;;;;5112038;28;19912;-67
2022/07/04 08:18:06;;;;;;;;;;;32.80;98.40;;;;;;5112100;28;19920;-65
2022/07/04 08:20:32;;;;;;;;;;;32.90;98.60;;;;;;5111320;28;19911;-66
2022/07/04 08:22:57;;;;;;;;;;;33.00;98.00;;;;;;5110508;28;20266;-64
2022/07/04 08:25:23;;;;;;;;;;;33.00;97.80;;;;;;5106871;28;19911;-65
2022/07/04 08:27:48;;;;;;;;;;;33.10;97.10;;;;;;5111482;28;19904;-65
2022/07/04 08:30:14;;;;;;;;;;;33.40;95.80;;;;;;5109684;28;19919;-65
2022/07/04 08:32:39;;;;;;;;;;;33.40;95.20;;;;;;5112783;28;20558;-65
2022/07/04 08:35:05;;;;;;;;;;;33.60;95.40;;;;;;5108894;28;19916;-65
2022/07/04 08:37:31;;;;;;;;;;;33.70;95.70;;;;;;5116068;28;19907;-65
2022/07/04 08:39:57;;;;;;;;;;;33.90;95.20;;;;;;5120564;28;19908;-65
2022/07/04 08:42:23;;;;;;;;;;;34.00;94.50;;;;;;5121290;28;19907;-63
2022/07/04 08:44:52;;;;;;;;;;;34.10;95.00;;;;;;5114962;28;20011;-63
2022/07/04 08:47:19;;;;;;;;;;;34.00;95.20;;;;;;5118530;28;19923;-62
2022/07/04 08:49:51;;;;;;;;;;;33.90;95.40;;;;;;5118447;28;19996;-64
2022/07/04 08:52:19;;;;;;;;;;;33.80;94.90;;;;;;5117619;28;19916;-63
2022/07/04 09:00:13;;;;;;;;;;;32.10;99.90;;;;;;5122974;28;19929;-63
2022/07/04 09:02:39;;;;;;;;;;;31.50;99.90;;;;;;5121443;28;19939;-65
2022/07/04 09:05:06;;;;;;;;;;;30.90;99.90;;;;;;5122902;28;19904;-63
2022/07/04 09:07:32;;;;;;;;;;;30.30;99.90;;;;;;5118343;28;19964;-62
2022/07/04 09:09:58;;;;;;;;;;;30.10;99.90;;;;;;5117998;28;19907;-63
2022/07/04 09:12:24;;;;;;;;;;;29.90;99.90;;;;;;5113420;28;19908;-64
2022/07/04 09:14:51;;;;;;;;;;;29.80;99.90;;;;;;5118254;28;20414;-63
2022/07/04 09:17:17;;;;;;;;;;;29.80;99.90;;;;;;5123797;28;19960;-64
2022/07/04 09:19:43;;;;;;;;;;;29.70;99.90;;;;;;5120152;28;19955;-64
2022/07/04 09:22:11;;;;;;;;;;;29.50;99.90;;;;;;5115355;28;19986;-63
2022/07/04 09:24:50;;;;;;;;;;;29.50;99.90;;;;;;5113156;28;19904;-63
2022/07/04 09:27:35;;;;;;;;;;;29.60;99.90;;;;;;5113331;28;19904;-63
2022/07/04 09:30:00;;;;;;;;;;;29.80;99.90;;;;;;5111285;28;19904;-63
2022/07/04 09:32:37;;;;;;;;;;;29.90;99.90;;;;;;5110339;28;19903;-63
2022/07/04 09:35:04;;;;;;;;;;;29.70;99.90;;;;;;5113100;28;19912;-63
2022/07/04 09:37:41;;;;;;;;;;;29.50;99.90;;;;;;5114050;28;19997;-62
2022/07/04 09:40:08;;;;;;;;;;;29.40;99.90;;;;;;5113605;28;20426;-63
2022/07/04 09:42:37;;;;;;;;;;;29.20;99.90;;;;;;5115839;28;19914;-63
2022/07/04 09:45:10;;;;;;;;;;;29.20;99.90;;;;;;5117136;28;19908;-64
2022/07/04 09:47:37;;;;;;;;;;;29.30;99.90;;;;;;5115565;28;19949;-63
2022/07/04 09:50:06;;;;;;;;;;;29.30;99.90;;;;;;5115160;28;19911;-63
2022/07/04 09:52:32;;;;;;;;;;;29.30;99.90;;;;;;5115973;28;19904;-63
2022/07/04 09:54:59;;;;;;;;;;;29.40;99.90;;;;;;5117305;28;19911;-64
2022/07/04 09:57:24;;;;;;;;;;;29.40;99.90;;;;;;5117226;28;19911;-62
2022/07/04 09:59:50;;;;;;;;;;;29.50;99.90;;;;;;5117366;28;20449;-63
2022/07/04 10:02:15;;;;;;;;;;;29.70;99.90;;;;;;5118090;28;19903;-64
2022/07/04 10:04:45;;;;;;;;;;;29.80;99.90;;;;;;5110865;28;20343;-62
2022/07/04 10:07:10;;;;;;;;;;;29.80;99.90;;;;;;5115082;28;19915;-63
2022/07/04 10:09:36;;;;;;;;;;;29.70;99.90;;;;;;5114644;28;19908;-63
2022/07/04 10:12:02;;;;;;;;;;;29.90;99.90;;;;;;5113132;28;19935;-64
2022/07/04 10:14:27;;;;;;;;;;;30.00;99.90;;;;;;5115141;28;19904;-62
2022/07/04 10:16:54;;;;;;;;;;;30.00;99.90;;;;;;5115989;28;19911;-63
2022/07/04 10:19:20;;;;;;;;;;;30.10;99.90;;;;;;5115123;28;19907;-62
2022/07/04 10:21:46;;;;;;;;;;;29.90;99.90;;;;;;5112720;28;20304;-63
2022/07/04 10:24:11;;;;;;;;;;;29.90;99.90;;;;;;5110733;28;19956;-63
2022/07/04 10:26:37;;;;;;;;;;;29.80;99.90;;;;;;5110426;28;19908;-62
2022/07/04 10:29:03;;;;;;;;;;;29.70;99.90;;;;;;5110254;28;20349;-65
2022/07/04 10:31:29;;;;;;;;;;;29.80;99.90;;;;;;5111419;28;19908;-64
2022/07/04 10:33:56;;;;;;;;;;;30.10;99.90;;;;;;5108677;28;19908;-63
2022/07/04 10:36:23;;;;;;;;;;;30.20;99.90;;;;;;5109626;28;19964;-64
2022/07/04 10:38:56;;;;;;;;;;;30.20;99.90;;;;;;5111486;28;20044;-63
2022/07/04 10:41:23;;;;;;;;;;;30.20;99.90;;;;;;5111421;28;19915;-63
2022/07/04 10:43:49;;;;;;;;;;;30.20;99.90;;;;;;5111326;28;19904;-65
2022/07/04 10:46:20;;;;;;;;;;;30.30;99.90;;;;;;5111088;28;20303;-62
2022/07/04 10:48:52;;;;;;;;;;;30.20;99.90;;;;;;5111381;28;19983;-63
2022/07/04 10:51:35;;;;;;;;;;;30.40;99.90;;;;;;5111398;28;19907;-64
2022/07/04 10:54:03;;;;;;;;;;;30.70;99.90;;;;;;5111303;28;19956;-63
2022/07/04 10:56:28;;;;;;;;;;;30.80;99.90;;;;;;5112165;28;19907;-63
2022/07/04 10:58:55;;;;;;;;;;;30.80;99.90;;;;;;5111074;28;19934;-63
2022/07/04 11:01:20;;;;;;;;;;;30.90;99.90;;;;;;5109911;28;19903;-62
2022/07/04 11:03:46;;;;;;;;;;;30.90;99.90;;;;;;5109343;28;19911;-62
2022/07/04 11:06:40;;;;;;;;;;;31.00;99.90;;;;;;5110282;28;19904;-64
2022/07/04 11:09:14;;;;;;;;;;;31.10;99.90;;;;;;5110861;28;19904;-62
2022/07/04 11:11:59;;;;;;;;;;;31.20;99.90;;;;;;5111041;28;19904;-62
2022/07/04 11:14:36;;;;;;;;;;;31.30;99.90;;;;;;5115304;28;19904;-63
2022/07/04 11:17:15;;;;;;;;;;;31.10;99.90;;;;;;5114941;28;19907;-63
2022/07/04 11:19:41;;;;;;;;;;;31.20;99.90;;;;;;5114800;28;19903;-63
2022/07/04 11:22:10;;;;;;;;;;;31.10;99.90;;;;;;5115218;28;19903;-64
2022/07/04 11:24:36;;;;;;;;;;;31.10;99.90;;;;;;5114979;28;19903;-64
2022/07/04 11:27:02;;;;;;;;;;;31.20;99.90;;;;;;5113665;28;19904;-63
2022/07/04 11:29:28;;;;;;;;;;;31.30;99.90;;;;;;5114584;28;19927;-63
2022/07/04 11:31:54;;;;;;;;;;;31.30;99.90;;;;;;5114862;28;20273;-63
2022/07/04 11:34:20;;;;;;;;;;;31.30;99.90;;;;;;5113354;28;19903;-65
2022/07/04 11:36:47;;;;;;;;;;;31.10;99.90;;;;;;5111885;28;19927;-62
2022/07/04 11:39:19;;;;;;;;;;;31.20;99.90;;;;;;5114552;28;20397;-62
2022/07/04 11:47:19;;;;;;;;;;;31.40;99.90;;;;;;5114037;28;19956;-63
2022/07/04 11:49:55;;;;;;;;;;;31.40;99.90;;;;;;5114622;28;19904;-63
2022/07/04 11:52:22;;;;;;;;;;;31.40;99.90;;;;;;5114674;28;19903;-63
2022/07/04 11:54:49;;;;;;;;;;;31.60;99.90;;;;;;5114576;28;20049;-64
2022/07/04 11:57:20;;;;;;;;;;;31.60;99.90;;;;;;5113062;28;19904;-63
2022/07/04 11:59:56;;;;;;;;;;;31.70;99.90;;;;;;5114115;28;19907;-64
2022/07/04 12:02:22;;;;;;;;;;;31.70;99.90;;;;;;5114495;28;20571;-65
2022/07/04 12:04:48;;;;;;;;;;;31.80;99.90;;;;;;5114300;28;19911;-64
2022/07/04 12:07:14;;;;;;;;;;;31.70;99.90;;;;;;5112876;28;19965;-64
2022/07/04 12:09:40;;;;;;;;;;;31.90;99.90;;;;;;5113803;28;19904;-64
2022/07/04 12:12:06;;;;;;;;;;;32.10;99.90;;;;;;5114249;28;19990;-64
2022/07/04 12:14:32;;;;;;;;;;;32.10;99.90;;;;;;5104437;28;20007;-63
2022/07/04 12:17:11;;;;;;;;;;;32.10;99.90;;;;;;5111584;28;19934;-63
2022/07/04 12:19:37;;;;;;;;;;;31.90;99.90;;;;;;5113709;28;19991;-64
2022/07/04 12:22:02;;;;;;;;;;;31.70;99.90;;;;;;5114023;28;19935;-63
2022/07/04 12:24:28;;;;;;;;;;;31.60;99.90;;;;;;5106889;28;19998;-62
2022/07/04 12:26:54;;;;;;;;;;;31.70;99.90;;;;;;5092915;28;20384;-64
2022/07/04 12:29:20;;;;;;;;;;;31.90;99.80;;;;;;5110982;28;19956;-64
2022/07/04 12:31:46;;;;;;;;;;;32.00;99.80;;;;;;5113498;28;20483;-63
2022/07/04 12:34:18;;;;;;;;;;;32.10;99.90;;;;;;5113456;28;19904;-63
2022/07/04 12:37:04;;;;;;;;;;;32.30;98.70;;;;;;5113617;28;19960;-63
2022/07/04 12:39:40;;;;;;;;;;;32.40;96.70;;;;;;5113052;28;19904;-64
2022/07/04 12:42:10;;;;;;;;;;;32.50;93.80;;;;;;5113431;28;19922;-64
2022/07/04 12:44:36;;;;;;;;;;;32.40;95.30;;;;;;5112138;28;19904;-63
2022/07/04 12:47:02;;;;;;;;;;;32.40;94.00;;;;;;5113422;28;20491;-64
2022/07/04 12:49:28;;;;;;;;;;;32.50;95.40;;;;;;5113176;28;19903;-64
2022/07/04 12:52:03;;;;;;;;;;;32.60;94.30;;;;;;5111916;28;19911;-64
2022/07/04 12:54:28;;;;;;;;;;;32.80;94.80;;;;;;5113311;28;19991;-65
2022/07/04 12:57:02;;;;;;;;;;;32.70;94.70;;;;;;5107889;28;20002;-61
2022/07/04 12:59:28;;;;;;;;;;;32.60;95.50;;;;;;5105463;28;19998;-63
2022/07/04 13:01:53;;;;;;;;;;;32.80;96.30;;;;;;5112948;27;20179;-64
2022/07/04 13:04:19;;;;;;;;;;;32.90;95.20;;;;;;5113150;28;19910;-65
2022/07/04 13:06:45;;;;;;;;;;;33.00;96.30;;;;;;5113117;28;19904;-65
2022/07/04 13:09:10;;;;;;;;;;;33.00;96.30;;;;;;5113387;28;19943;-63
2022/07/04 13:14:20;;;;;;;;;;;32.70;98.00;;;;;;5114249;28;19956;-62
2022/07/04 13:16:46;;;;;;;;;;;33.00;98.80;;;;;;5113673;28;20269;-65
2022/07/04 13:19:11;;;;;;;;;;;33.20;98.90;;;;;;5112502;28;19943;-64
2022/07/04 13:21:37;;;;;;;;;;;33.40;99.90;;;;;;5111390;28;20362;-63
2022/07/04 13:24:03;;;;;;;;;;;33.40;99.90;;;;;;5112696;28;19907;-62
2022/07/04 13:26:30;;;;;;;;;;;33.40;99.90;;;;;;5112618;28;19904;-64
2022/07/04 13:28:56;;;;;;;;;;;33.20;99.90;;;;;;5103692;27;20418;-64
2022/07/04 13:31:22;;;;;;;;;;;32.90;99.90;;;;;;5106637;28;19908;-64
2022/07/04 13:33:47;;;;;;;;;;;33.00;99.90;;;;;;5112141;28;19910;-64
2022/07/04 13:36:14;;;;;;;;;;;33.00;99.90;;;;;;5110131;28;19920;-65
2022/07/04 13:38:40;;;;;;;;;;;32.80;99.90;;;;;;5112391;28;19904;-63
2022/07/04 13:41:06;;;;;;;;;;;33.10;99.90;;;;;;5112173;28;20330;-64
2022/07/04 13:43:31;;;;;;;;;;;33.30;99.90;;;;;;5112406;28;19903;-63
2022/07/04 13:45:57;;;;;;;;;;;33.20;99.90;;;;;;5111356;28;20273;-64
2022/07/04 13:48:24;;;;;;;;;;;33.00;99.90;;;;;;5112449;28;20381;-63
2022/07/04 13:50:50;;;;;;;;;;;32.90;99.90;;;;;;5111267;28;19904;-63
2022/07/04 13:53:15;;;;;;;;;;;32.70;99.90;;;;;;5112568;28;20358;-65
2022/07/04 13:55:41;;;;;;;;;;;32.80;99.90;;;;;;5112338;28;19908;-64
2022/07/04 13:58:07;;;;;;;;;;;32.70;99.90;;;;;;5110899;28;19903;-65
2022/07/04 14:00:34;;;;;;;;;;;32.80;99.90;;;;;;5111841;28;20262;-63
2022/07/04 14:03:00;;;;;;;;;;;32.70;99.90;;;;;;5112433;28;19907;-63
2022/07/04 14:05:27;;;;;;;;;;;32.60;99.90;;;;;;5112292;28;19949;-64
2022/07/04 14:07:52;;;;;;;;;;;32.20;99.90;;;;;;5111967;28;19907;-63
2022/07/04 14:10:18;;;;;;;;;;;32.30;99.90;;;;;;5110123;28;19912;-63
2022/07/04 14:12:44;;;;;;;;;;;32.50;99.90;;;;;;5111895;28;19904;-64
2022/07/04 14:15:10;;;;;;;;;;;32.50;99.90;;;;;;5111886;28;19908;-65
2022/07/04 14:17:36;;;;;;;;;;;32.60;99.90;;;;;;5108739;28;19918;-64
2022/07/04 14:20:03;;;;;;;;;;;32.60;99.90;;;;;;5109872;28;19915;-65
2022/07/04 14:22:29;;;;;;;;;;;32.70;99.90;;;;;;5111576;28;19910;-64
2022/07/04 14:24:54;;;;;;;;;;;32.80;99.90;;;;;;5112070;28;20285;-62
2022/07/04 14:27:20;;;;;;;;;;;32.90;99.90;;;;;;5110738;28;19907;-64
2022/07/04 14:29:46;;;;;;;;;;;33.00;99.90;;;;;;5111336;28;19908;-63
2022/07/04 14:32:11;;;;;;;;;;;33.00;99.90;;;;;;5111717;28;19904;-65
2022/07/04 14:34:37;;;;;;;;;;;32.70;99.90;;;;;;5111388;28;19915;-63
2022/07/04 14:37:03;;;;;;;;;;;32.70;99.90;;;;;;5110138;28;19998;-65
2022/07/04 14:39:28;;;;;;;;;;;32.70;99.90;;;;;;5109948;28;19994;-64